Time;durP1;ratioP1;P1;durP2;ratioP2;P2;SDS_P1;SDS_P2;PMS_P1;PMS_P2;Temp;Humidity;BMP_temperature;BMP_pressure;BME280_temperature;BME280_humidity;BME280_pressure;Samples;Min_cycle;Max_cycle;Signal;HPM_P1;HPM_P2
2023/11/05 00:01:39;;;;;;;6.30;2.63;;;;;;;10.48;100.00;93890.44;5032380;28;20496;-75
2023/11/05 00:04:07;;;;;;;4.23;2.60;;;;;;;10.35;100.00;93882.97;5032918;28;20450;-74
2023/11/05 00:06:34;;;;;;;4.90;2.90;;;;;;;10.25;99.72;93866.53;5032707;28;20812;-74
2023/11/05 00:09:01;;;;;;;3.70;2.57;;;;;;;10.24;100.00;93884.06;5032248;28;20450;-74
2023/11/05 00:11:28;;;;;;;5.63;2.63;;;;;;;10.08;100.00;93873.41;5032155;28;20454;-74
2023/11/05 00:13:55;;;;;;;2.50;1.93;;;;;;;10.05;100.00;93880.75;5013827;28;20909;-74
2023/11/05 00:16:23;;;;;;;4.10;1.80;;;;;;;10.03;100.00;93896.63;4997346;28;20434;-74
2023/11/05 00:18:50;;;;;;;3.13;1.57;;;;;;;10.12;100.00;93893.13;5033596;28;20512;-74
2023/11/05 00:21:17;;;;;;;3.80;1.77;;;;;;;10.21;100.00;93894.03;5036304;28;20430;-73
2023/11/05 00:23:44;;;;;;;2.23;1.90;;;;;;;10.27;100.00;93892.59;5036381;28;20450;-74
2023/11/05 00:26:11;;;;;;;2.20;1.77;;;;;;;10.40;100.00;93911.34;5036653;28;20499;-73
2023/11/05 00:28:38;;;;;;;2.00;1.80;;;;;;;10.49;100.00;93911.28;5036202;28;20465;-74
2023/11/05 00:31:05;;;;;;;4.83;1.80;;;;;;;10.55;98.92;93901.97;5035955;28;21004;-74
2023/11/05 00:33:33;;;;;;;4.30;2.93;;;;;;;10.52;98.03;93889.97;5035916;28;20819;-73
2023/11/05 00:36:00;;;;;;;4.50;2.20;;;;;;;10.46;99.25;93880.13;5036153;28;20442;-74
2023/11/05 00:38:27;;;;;;;5.73;1.97;;;;;;;10.16;99.99;93876.09;5035949;28;20837;-74
2023/11/05 00:40:54;;;;;;;1.70;1.47;;;;;;;9.96;100.00;93886.91;5035952;28;20450;-75
2023/11/05 00:43:21;;;;;;;3.53;2.07;;;;;;;9.94;100.00;93894.91;5035785;28;20442;-74
2023/11/05 00:45:47;;;;;;;2.47;1.70;;;;;;;10.06;100.00;93898.13;5035698;28;20481;-74
2023/11/05 00:48:14;;;;;;;1.67;1.57;;;;;;;10.24;100.00;93915.50;5035948;28;20477;-74
2023/11/05 00:50:42;;;;;;;2.70;2.23;;;;;;;10.44;99.69;93904.84;5035874;28;20440;-74
2023/11/05 00:53:09;;;;;;;2.10;1.63;;;;;;;10.59;99.36;93887.56;5035512;28;20504;-74
2023/11/05 00:55:36;;;;;;;3.77;1.80;;;;;;;10.71;98.91;93875.84;5036022;28;20442;-75
2023/11/05 00:58:03;;;;;;;2.27;2.03;;;;;;;10.74;98.25;93872.06;5036308;28;20446;-74
2023/11/05 01:00:29;;;;;;;6.77;4.20;;;;;;;10.61;97.85;93853.28;5036031;28;20442;-74
2023/11/05 01:02:56;;;;;;;1.83;1.73;;;;;;;10.55;97.88;93858.19;5035937;28;20446;-74
2023/11/05 01:05:23;;;;;;;2.70;2.50;;;;;;;10.61;98.57;93863.78;5035985;28;20450;-74
2023/11/05 01:07:51;;;;;;;2.87;2.43;;;;;;;10.71;98.94;93864.53;5036026;28;20449;-74
2023/11/05 01:10:18;;;;;;;2.70;1.80;;;;;;;10.76;97.70;93867.50;5035902;28;20443;-74
2023/11/05 01:12:45;;;;;;;2.77;2.47;;;;;;;10.77;97.13;93875.22;5036146;28;20482;-74
2023/11/05 01:15:12;;;;;;;3.90;3.37;;;;;;;10.82;97.12;93880.81;5017523;28;20532;-74
2023/11/05 01:17:38;;;;;;;8.53;2.83;;;;;;;10.90;96.64;93880.03;5035953;28;20783;-74
2023/11/05 01:20:08;;;;;;;3.20;2.50;;;;;;;10.98;96.13;93872.16;5034992;28;20505;-74
2023/11/05 01:22:35;;;;;;;5.77;3.07;;;;;;;11.00;95.65;93872.03;5017093;28;20527;-74
2023/11/05 01:25:03;;;;;;;2.53;2.33;;;;;;;11.03;95.30;93869.09;5035107;28;20953;-73
2023/11/05 01:27:30;;;;;;;3.60;2.70;;;;;;;11.06;96.00;93887.16;5035343;28;20459;-74
2023/11/05 01:29:57;;;;;;;6.10;4.40;;;;;;;11.07;95.91;93886.19;5016207;28;20449;-75
2023/11/05 01:32:23;;;;;;;4.90;3.73;;;;;;;10.97;95.76;93891.53;5000262;28;20492;-73
2023/11/05 01:34:50;;;;;;;10.57;4.50;;;;;;;10.92;95.43;93883.31;5034967;28;20434;-74
2023/11/05 01:37:17;;;;;;;5.67;3.70;;;;;;;10.90;96.67;93887.88;5035413;28;20450;-74
2023/11/05 01:39:44;;;;;;;4.27;2.30;;;;;;;10.89;96.02;93883.63;5035125;28;20450;-74
2023/11/05 01:42:12;;;;;;;2.40;2.20;;;;;;;10.89;96.84;93881.00;5035907;28;20470;-74
2023/11/05 01:44:39;;;;;;;3.40;2.23;;;;;;;10.87;96.33;93861.97;5017056;28;20447;-73
2023/11/05 01:47:06;;;;;;;6.93;2.33;;;;;;;10.88;96.37;93845.22;5000558;28;20925;-73
2023/11/05 01:49:33;;;;;;;3.07;2.10;;;;;;;10.86;96.52;93863.75;5035204;28;20443;-74
2023/11/05 01:52:00;;;;;;;2.47;2.27;;;;;;;10.84;97.47;93857.03;5034516;28;20471;-74
2023/11/05 01:54:27;;;;;;;3.90;2.80;;;;;;;10.88;97.24;93853.09;5034756;28;20447;-74
2023/11/05 01:56:54;;;;;;;5.50;2.67;;;;;;;10.93;96.19;93863.94;5035155;28;20440;-74
2023/11/05 01:59:23;;;;;;;2.97;2.60;;;;;;;10.97;96.53;93881.03;5035138;28;21040;-74
2023/11/05 02:01:51;;;;;;;4.37;2.30;;;;;;;11.00;95.18;93879.91;5034677;28;20930;-74
2023/11/05 02:04:18;;;;;;;2.37;2.20;;;;;;;10.99;94.63;93889.59;5034646;28;20439;-74
2023/11/05 02:06:44;;;;;;;3.60;2.20;;;;;;;10.93;94.86;93882.31;5034787;28;20440;-75
2023/11/05 02:09:11;;;;;;;3.53;2.47;;;;;;;10.80;95.26;93890.63;5035194;28;20458;-74
2023/11/05 02:11:38;;;;;;;2.73;2.43;;;;;;;10.82;95.18;93888.69;5034645;28;20457;-74
2023/11/05 02:14:05;;;;;;;4.00;2.33;;;;;;;10.81;96.15;93891.47;5034419;28;20494;-74
2023/11/05 02:16:33;;;;;;;8.77;2.67;;;;;;;10.82;96.33;93891.31;5034586;28;20942;-74
2023/11/05 02:19:00;;;;;;;5.63;2.70;;;;;;;10.68;95.86;93885.78;5034149;28;20520;-74
2023/11/05 02:21:31;;;;;;;3.63;2.23;;;;;;;10.30;97.18;93887.84;5034048;28;20925;-73
2023/11/05 02:24:00;;;;;;;3.07;2.30;;;;;;;10.23;97.56;93892.91;4999115;28;20956;-73
2023/11/05 02:26:27;;;;;;;3.10;2.70;;;;;;;10.24;98.61;93889.28;5034324;28;20430;-73
2023/11/05 02:28:53;;;;;;;5.67;2.70;;;;;;;10.29;98.39;93903.75;5034336;28;20447;-73
2023/11/05 02:31:20;;;;;;;2.70;2.10;;;;;;;10.30;96.98;93903.59;5034060;28;20438;-74
2023/11/05 02:33:47;;;;;;;2.30;2.10;;;;;;;10.35;97.04;93909.19;5033784;28;20483;-74
2023/11/05 02:36:15;;;;;;;2.40;2.10;;;;;;;10.38;97.98;93890.53;5033713;28;20451;-73
2023/11/05 02:38:42;;;;;;;2.17;1.87;;;;;;;10.35;96.80;93896.09;5034384;28;20438;-73
2023/11/05 02:41:11;;;;;;;3.03;2.40;;;;;;;10.39;97.25;93907.91;5033427;28;20795;-73
2023/11/05 02:43:38;;;;;;;2.67;2.47;;;;;;;10.44;96.27;93896.97;5034205;28;20960;-72
2023/11/05 02:46:06;;;;;;;4.30;2.50;;;;;;;10.21;96.38;93879.13;5033919;28;20933;-73
2023/11/05 02:48:33;;;;;;;3.53;3.23;;;;;;;10.15;97.34;93887.56;5033911;28;20450;-73
2023/11/05 02:51:00;;;;;;;4.50;3.00;;;;;;;10.16;97.03;93878.72;5034125;28;20438;-74
2023/11/05 02:53:27;;;;;;;5.13;2.80;;;;;;;9.84;98.63;93865.38;5033954;28;20992;-73
2023/11/05 02:55:54;;;;;;;3.13;2.87;;;;;;;9.71;98.84;93859.66;5033865;28;20454;-73
2023/11/05 02:58:22;;;;;;;4.77;1.80;;;;;;;9.52;100.00;93845.72;5015524;28;20929;-73
2023/11/05 03:00:49;;;;;;;2.23;2.00;;;;;;;9.58;99.95;93846.94;5033798;28;20446;-73
2023/11/05 03:03:16;;;;;;;8.33;2.57;;;;;;;9.54;100.00;93842.97;5033441;28;20469;-73
2023/11/05 03:05:43;;;;;;;3.30;2.17;;;;;;;9.57;100.00;93832.22;5033752;28;20457;-74
2023/11/05 03:08:11;;;;;;;5.10;2.10;;;;;;;9.68;100.00;93839.84;5033444;28;20442;-74
2023/11/05 03:10:39;;;;;;;2.17;1.97;;;;;;;9.79;99.52;93850.06;5033706;28;20457;-74
2023/11/05 03:13:06;;;;;;;3.20;2.87;;;;;;;9.80;98.82;93854.34;5033337;28;20489;-74
2023/11/05 03:15:34;;;;;;;4.03;3.00;;;;;;;9.79;98.77;93863.16;5033307;28;20454;-74
2023/11/05 03:18:01;;;;;;;4.87;3.03;;;;;;;9.81;98.28;93866.47;5032865;28;20450;-75
2023/11/05 03:20:27;;;;;;;5.77;3.40;;;;;;;9.86;98.39;93866.84;4998195;28;20449;-74
2023/11/05 03:22:54;;;;;;;3.37;2.93;;;;;;;9.82;98.70;93880.38;5014774;28;20471;-73
2023/11/05 03:25:21;;;;;;;7.03;4.40;;;;;;;9.85;98.73;93873.06;5033277;28;20442;-74
2023/11/05 03:27:48;;;;;;;4.13;3.73;;;;;;;9.93;98.66;93874.94;5032765;28;20434;-74
2023/11/05 03:30:15;;;;;;;7.63;3.27;;;;;;;10.02;98.91;93886.28;5033141;28;20460;-73
2023/11/05 03:32:43;;;;;;;4.63;3.43;;;;;;;9.86;97.21;93881.75;5032900;28;20852;-73
2023/11/05 03:35:10;;;;;;;4.10;2.80;;;;;;;9.77;98.07;93880.00;5033412;28;20446;-72
2023/11/05 03:37:37;;;;;;;2.43;2.20;;;;;;;9.76;98.02;93894.91;5014286;28;20809;-73
2023/11/05 03:40:04;;;;;;;2.83;2.23;;;;;;;9.70;98.85;93895.50;5032809;28;20442;-74
2023/11/05 03:42:31;;;;;;;8.83;3.03;;;;;;;9.77;98.92;93895.72;4997901;28;20434;-73
2023/11/05 03:44:58;;;;;;;2.93;2.57;;;;;;;9.82;98.59;93889.06;5032864;28;20859;-73
2023/11/05 03:47:25;;;;;;;4.10;3.30;;;;;;;9.88;98.51;93883.25;5033373;28;20435;-73
2023/11/05 03:49:53;;;;;;;3.00;2.70;;;;;;;9.92;98.07;93874.09;5033247;28;20453;-73
2023/11/05 03:52:20;;;;;;;8.20;5.03;;;;;;;10.00;97.93;93881.19;5032506;28;20956;-73
2023/11/05 03:54:47;;;;;;;10.70;9.20;;;;;;;10.01;97.81;93876.78;5032433;28;20483;-72
2023/11/05 03:57:13;;;;;;;10.07;8.03;;;;;;;10.01;98.00;93871.53;4997821;28;20442;-73
2023/11/05 03:59:40;;;;;;;6.97;5.10;;;;;;;10.03;97.82;93866.97;5014543;28;20796;-73
2023/11/05 04:02:07;;;;;;;2.07;1.87;;;;;;;9.90;97.79;93872.63;5032449;28;20445;-73
2023/11/05 04:04:34;;;;;;;4.03;3.63;;;;;;;9.85;97.38;93867.00;5033113;28;20450;-74
2023/11/05 04:07:05;;;;;;;3.50;2.90;;;;;;;9.82;98.51;93856.81;5032799;28;20442;-75
2023/11/05 04:09:32;;;;;;;4.47;3.07;;;;;;;9.89;98.16;93863.09;5032797;28;20442;-74
2023/11/05 04:11:59;;;;;;;8.33;5.80;;;;;;;9.86;97.67;93863.41;5033095;28;20443;-74
2023/11/05 04:14:26;;;;;;;5.77;4.07;;;;;;;9.86;98.37;93866.84;4997750;28;20482;-74
2023/11/05 04:16:53;;;;;;;3.30;3.00;;;;;;;9.87;98.68;93876.34;5032871;28;20445;-74
2023/11/05 04:19:20;;;;;;;3.20;2.90;;;;;;;9.76;97.23;93897.53;5032409;28;20474;-73
2023/11/05 04:21:47;;;;;;;2.40;2.20;;;;;;;9.68;97.47;93902.69;5032415;28;20473;-75
2023/11/05 04:24:15;;;;;;;11.07;2.90;;;;;;;9.62;96.93;93911.16;5032257;28;20473;-75
2023/11/05 04:26:42;;;;;;;4.00;2.37;;;;;;;9.48;97.76;93895.94;5013832;28;20945;-74
2023/11/05 04:29:08;;;;;;;3.57;2.47;;;;;;;9.43;98.59;93903.41;4997506;28;20442;-74
2023/11/05 04:31:35;;;;;;;2.50;2.30;;;;;;;9.33;98.23;93916.56;5013737;28;20442;-73
2023/11/05 04:34:04;;;;;;;6.07;3.20;;;;;;;9.37;99.43;93927.56;5032648;28;20482;-72
2023/11/05 04:36:31;;;;;;;6.50;3.13;;;;;;;9.43;99.97;93919.13;5032775;28;20457;-72
2023/11/05 04:38:58;;;;;;;3.43;2.87;;;;;;;9.46;99.16;93918.81;5013794;28;20453;-72
2023/11/05 04:41:26;;;;;;;5.80;4.27;;;;;;;9.29;98.10;93907.38;5032377;28;20442;-73
2023/11/05 04:43:53;;;;;;;3.60;3.30;;;;;;;9.22;97.89;93901.03;5032104;28;20434;-74
2023/11/05 04:46:20;;;;;;;3.70;2.83;;;;;;;9.08;99.05;93896.31;5032670;28;20453;-73
2023/11/05 04:48:47;;;;;;;5.60;3.30;;;;;;;9.06;99.16;93893.84;5032276;28;20500;-73
2023/11/05 04:51:13;;;;;;;4.27;3.10;;;;;;;9.17;99.92;93911.13;5031749;28;20450;-73
2023/11/05 04:53:40;;;;;;;4.63;3.30;;;;;;;9.09;98.82;93906.63;5032489;28;20478;-73
2023/11/05 04:56:07;;;;;;;5.53;3.00;;;;;;;9.09;99.15;93896.16;5033115;28;20439;-72
2023/11/05 04:58:35;;;;;;;3.13;2.80;;;;;;;9.08;98.80;93905.00;5032012;28;20448;-73
2023/11/05 05:01:03;;;;;;;4.70;3.70;;;;;;;9.13;99.56;93918.47;5032043;28;20456;-73
2023/11/05 05:03:30;;;;;;;8.83;5.00;;;;;;;9.07;99.63;93905.13;5031808;28;21008;-73
2023/11/05 05:05:57;;;;;;;4.93;3.50;;;;;;;8.92;99.68;93915.25;5034805;28;20446;-74
2023/11/05 05:08:24;;;;;;;3.77;3.37;;;;;;;8.85;100.00;93906.31;5035979;28;20449;-74
2023/11/05 05:10:51;;;;;;;3.30;2.90;;;;;;;8.96;99.85;93906.13;5035378;28;20450;-73
2023/11/05 05:13:18;;;;;;;3.93;2.60;;;;;;;9.04;100.00;93902.81;5035542;28;20490;-74
2023/11/05 05:15:46;;;;;;;3.93;2.57;;;;;;;8.99;100.00;93898.03;5035545;28;20497;-74
2023/11/05 05:18:13;;;;;;;14.70;3.97;;;;;;;9.07;100.00;93908.56;5000443;28;20935;-75
2023/11/05 05:20:39;;;;;;;2.67;2.33;;;;;;;9.17;100.00;93909.34;5035408;28;20442;-74
2023/11/05 05:23:06;;;;;;;4.63;2.27;;;;;;;9.17;99.52;93935.50;5035844;28;20461;-73
2023/11/05 05:25:33;;;;;;;5.33;3.33;;;;;;;9.18;99.67;93928.50;5035376;28;20442;-74
2023/11/05 05:28:00;;;;;;;3.60;2.47;;;;;;;9.36;100.00;93912.84;5035256;28;20947;-74
2023/11/05 05:30:26;;;;;;;9.73;6.00;;;;;;;9.32;98.62;93912.31;5035520;28;20450;-73
2023/11/05 05:32:55;;;;;;;4.20;3.60;;;;;;;9.25;99.11;93911.22;5016817;28;20953;-73
2023/11/05 05:35:21;;;;;;;4.50;3.10;;;;;;;9.34;98.37;93930.50;5035387;28;20482;-73
2023/11/05 05:37:50;;;;;;;8.47;4.63;;;;;;;9.53;100.00;93928.56;5016356;28;20441;-73
2023/11/05 05:40:17;;;;;;;5.00;3.03;;;;;;;9.83;99.20;93926.56;5034891;28;20496;-75
2023/11/05 05:42:45;;;;;;;4.37;2.87;;;;;;;10.88;97.27;93944.16;5035226;28;20458;-75
2023/11/05 05:45:12;;;;;;;3.13;2.83;;;;;;;11.48;92.21;93942.28;5035370;28;20452;-74
2023/11/05 05:47:39;;;;;;;5.83;2.67;;;;;;;11.69;89.50;93940.06;5035772;28;20440;-73
2023/11/05 05:50:08;;;;;;;4.63;4.10;;;;;;;11.78;87.63;93935.69;5016476;28;20451;-73
2023/11/05 05:52:35;;;;;;;3.73;2.80;;;;;;;11.78;86.34;93954.09;5016957;28;20463;-74
2023/11/05 05:55:04;;;;;;;3.33;2.53;;;;;;;12.21;86.60;93954.84;5034963;28;20487;-74
2023/11/05 05:57:31;;;;;;;3.73;3.20;;;;;;;12.35;85.00;93962.06;5035589;28;20449;-75
2023/11/05 05:59:58;;;;;;;2.80;2.60;;;;;;;12.75;84.08;93960.44;5035388;28;20446;-75
2023/11/05 06:02:25;;;;;;;3.47;2.70;;;;;;;13.38;82.21;93955.22;5035620;28;20449;-74
2023/11/05 06:04:51;;;;;;;4.73;3.20;;;;;;;13.67;78.45;93946.72;5035547;28;20442;-75
2023/11/05 06:07:20;;;;;;;3.53;3.33;;;;;;;14.18;76.22;93955.84;5034688;28;20441;-73
2023/11/05 06:09:46;;;;;;;4.57;2.90;;;;;;;14.49;74.88;93957.63;5034490;28;20740;-74
2023/11/05 06:12:13;;;;;;;3.47;3.17;;;;;;;14.96;75.07;93967.13;5034703;28;20443;-74
2023/11/05 06:14:40;;;;;;;3.30;3.00;;;;;;;15.24;72.24;93947.03;5034489;28;20490;-74
2023/11/05 06:17:07;;;;;;;2.33;2.03;;;;;;;15.15;72.53;93963.97;5033635;28;20442;-75
2023/11/05 06:19:34;;;;;;;4.90;2.07;;;;;;;15.26;71.42;93937.09;5034414;28;20964;-74
2023/11/05 06:22:00;;;;;;;3.63;2.20;;;;;;;15.08;70.16;93949.84;5034522;28;20441;-74
2023/11/05 06:24:29;;;;;;;2.97;1.97;;;;;;;15.17;70.35;93952.22;4999259;28;20440;-74
2023/11/05 06:26:55;;;;;;;3.00;1.90;;;;;;;15.25;68.96;93947.84;5033676;28;20449;-74
2023/11/05 06:29:22;;;;;;;2.80;2.20;;;;;;;15.34;70.35;93942.31;5034514;28;20439;-74
2023/11/05 06:31:49;;;;;;;11.00;3.53;;;;;;;14.83;69.76;93934.22;5034205;28;20439;-74
2023/11/05 06:34:17;;;;;;;13.23;9.27;;;;;;;14.72;71.57;93926.72;5015826;28;20492;-74
2023/11/05 06:36:57;;;;;;;5.33;4.10;;;;;;;14.93;72.71;93931.31;5015498;28;20854;-74
2023/11/05 06:39:24;;;;;;;4.77;2.80;;;;;;;15.09;71.60;93930.34;5033975;28;20445;-75
2023/11/05 06:41:52;;;;;;;5.80;2.53;;;;;;;15.09;69.90;93925.06;5033872;28;20534;-74
2023/11/05 06:44:19;;;;;;;3.83;2.10;;;;;;;15.09;71.31;93946.22;5015118;28;20438;-75
2023/11/05 06:46:46;;;;;;;3.40;2.50;;;;;;;15.19;71.13;93957.31;5033856;28;20466;-74
2023/11/05 06:49:13;;;;;;;8.00;3.60;;;;;;;15.11;69.88;93946.84;5033944;28;20439;-74
2023/11/05 06:51:40;;;;;;;4.70;3.17;;;;;;;14.42;71.77;93938.16;5034093;28;20446;-75
2023/11/05 06:54:08;;;;;;;4.50;3.73;;;;;;;14.34;73.54;93940.88;5015350;28;20485;-74
2023/11/05 06:56:35;;;;;;;4.80;3.27;;;;;;;14.27;75.46;93956.59;5034050;28;20472;-74
2023/11/05 06:59:03;;;;;;;3.80;2.83;;;;;;;14.25;74.31;93946.22;5033823;28;20446;-74
2023/11/05 07:01:30;;;;;;;3.40;2.57;;;;;;;14.03;75.54;93938.28;4998785;28;20460;-74
2023/11/05 07:03:58;;;;;;;2.20;2.00;;;;;;;14.03;75.78;93952.28;5033546;28;20457;-74
2023/11/05 07:06:25;;;;;;;3.33;3.03;;;;;;;13.87;76.34;93939.19;5033512;28;20445;-74
2023/11/05 07:08:52;;;;;;;4.37;2.70;;;;;;;13.69;77.07;93936.00;5033489;28;20529;-74
2023/11/05 07:11:20;;;;;;;2.97;2.77;;;;;;;13.56;78.48;93932.06;5033010;28;20438;-74
2023/11/05 07:13:47;;;;;;;5.17;2.77;;;;;;;13.51;79.63;93929.13;5033325;28;20484;-73
2023/11/05 07:16:15;;;;;;;4.23;3.43;;;;;;;13.51;78.36;93923.06;5033128;28;20491;-74
2023/11/05 07:18:42;;;;;;;8.07;2.50;;;;;;;13.26;78.76;93920.50;5032895;28;20481;-73
2023/11/05 07:21:11;;;;;;;8.93;3.33;;;;;;;13.25;80.03;93931.22;5032941;28;20506;-74
2023/11/05 07:23:38;;;;;;;4.73;2.97;;;;;;;13.17;80.78;93933.84;5032875;28;20454;-75
2023/11/05 07:26:05;;;;;;;7.83;2.40;;;;;;;13.28;80.36;93942.22;5033115;28;20488;-74
2023/11/05 07:28:32;;;;;;;4.60;2.67;;;;;;;13.35;79.57;93921.31;5033067;28;20535;-74
2023/11/05 07:30:59;;;;;;;7.53;2.73;;;;;;;13.27;79.54;93902.88;5032775;28;20450;-75
2023/11/05 07:33:27;;;;;;;8.30;3.03;;;;;;;13.28;79.41;93912.44;5033291;28;20834;-74
2023/11/05 07:35:54;;;;;;;4.90;4.10;;;;;;;13.38;79.50;93910.44;5033194;28;20837;-74
2023/11/05 07:38:22;;;;;;;3.03;2.20;;;;;;;13.43;78.61;93899.38;5033476;28;20441;-74
2023/11/05 07:40:49;;;;;;;3.70;2.63;;;;;;;13.51;77.44;93889.59;5033110;28;20500;-75
2023/11/05 07:43:17;;;;;;;4.00;2.73;;;;;;;13.47;76.75;93885.69;5032935;28;20447;-74
2023/11/05 07:45:44;;;;;;;2.83;2.33;;;;;;;13.54;76.97;93881.34;5033100;28;20882;-74
2023/11/05 07:48:11;;;;;;;8.60;3.33;;;;;;;13.54;77.51;93876.06;5032888;28;20449;-74
2023/11/05 07:50:39;;;;;;;5.60;3.07;;;;;;;13.53;78.05;93866.53;5033437;28;20454;-74
2023/11/05 07:53:06;;;;;;;5.07;3.17;;;;;;;13.55;79.38;93863.72;5033497;28;20455;-74
2023/11/05 07:55:33;;;;;;;9.90;3.97;;;;;;;13.67;78.95;93872.91;5033094;28;20477;-75
2023/11/05 07:57:59;;;;;;;3.00;2.77;;;;;;;13.61;77.87;93873.59;5032812;28;20446;-75
2023/11/05 08:00:26;;;;;;;5.43;2.33;;;;;;;13.63;77.99;93875.06;5032793;28;20439;-74
2023/11/05 08:02:53;;;;;;;3.90;3.10;;;;;;;13.68;78.24;93876.34;5032265;28;20443;-75
2023/11/05 08:05:20;;;;;;;3.70;2.83;;;;;;;13.52;78.28;93875.44;5033075;28;20446;-73
2023/11/05 08:07:52;;;;;;;3.33;3.03;;;;;;;13.51;78.32;93865.88;5032675;28;20453;-74
2023/11/05 08:10:19;;;;;;;5.13;3.40;;;;;;;13.53;79.46;93866.53;5032826;28;20448;-74
2023/11/05 08:12:46;;;;;;;2.70;2.50;;;;;;;13.54;78.47;93859.44;5032606;28;20437;-74
2023/11/05 08:15:13;;;;;;;3.90;2.40;;;;;;;13.59;78.33;93855.31;5033367;28;20485;-74
2023/11/05 08:17:43;;;;;;;4.90;2.23;;;;;;;13.67;76.96;93851.81;5033021;28;20815;-73
2023/11/05 08:20:14;;;;;;;4.50;2.63;;;;;;;13.80;77.29;93830.94;5032943;28;20485;-75
2023/11/05 08:22:42;;;;;;;6.50;2.57;;;;;;;13.90;76.97;93822.81;5032799;28;20448;-74
2023/11/05 08:25:11;;;;;;;3.20;2.47;;;;;;;14.05;77.24;93826.31;5014210;28;20438;-73
2023/11/05 08:27:39;;;;;;;5.40;2.37;;;;;;;14.18;76.95;93812.53;5032225;28;20945;-74
2023/11/05 08:30:11;;;;;;;4.10;2.50;;;;;;;14.37;76.90;93821.75;5032078;28;20805;-75
2023/11/05 08:32:39;;;;;;;3.70;2.40;;;;;;;14.50;76.21;93814.09;5032123;28;20447;-73
2023/11/05 08:35:09;;;;;;;2.97;2.30;;;;;;;14.54;73.14;93797.69;5031919;28;20862;-74
2023/11/05 08:37:37;;;;;;;5.47;2.30;;;;;;;14.61;74.08;93803.06;5032153;28;20929;-73
2023/11/05 08:40:07;;;;;;;3.00;2.57;;;;;;;14.66;74.32;93800.69;5034434;28;20491;-74
2023/11/05 08:42:36;;;;;;;4.63;2.37;;;;;;;14.83;74.89;93786.31;5035936;28;20476;-74
2023/11/05 08:45:02;;;;;;;2.30;2.10;;;;;;;15.02;73.83;93774.34;5036132;28;20442;-74
2023/11/05 08:47:29;;;;;;;3.60;2.60;;;;;;;15.26;73.12;93783.78;5036293;28;20446;-74
2023/11/05 08:49:56;;;;;;;5.40;2.60;;;;;;;15.52;72.49;93782.47;5035651;28;20433;-74
2023/11/05 08:52:23;;;;;;;3.90;2.33;;;;;;;15.71;71.49;93776.59;5036161;28;20532;-73
2023/11/05 08:54:50;;;;;;;4.80;3.10;;;;;;;15.77;70.33;93781.13;5035646;28;20474;-74
2023/11/05 08:57:17;;;;;;;3.47;3.03;;;;;;;15.59;70.62;93762.22;5036093;28;20438;-74
2023/11/05 08:59:45;;;;;;;3.43;2.83;;;;;;;15.47;71.20;93760.06;4984471;28;20420;-74
2023/11/05 09:02:12;;;;;;;3.30;2.93;;;;;;;15.40;72.25;93759.16;5035926;28;20445;-74
2023/11/05 09:04:39;;;;;;;4.80;2.97;;;;;;;15.41;72.51;93760.81;5017391;28;20816;-74
2023/11/05 09:07:06;;;;;;;4.30;3.10;;;;;;;15.38;71.85;93771.75;5035987;28;20447;-74
2023/11/05 09:09:33;;;;;;;6.03;3.13;;;;;;;15.34;72.09;93770.50;5035550;28;20478;-73
2023/11/05 09:12:00;;;;;;;6.07;3.40;;;;;;;15.36;73.15;93768.47;5035624;28;20434;-73
2023/11/05 09:14:27;;;;;;;6.40;3.33;;;;;;;15.38;73.69;93747.97;5035505;28;20440;-73
2023/11/05 09:16:58;;;;;;;8.07;3.43;;;;;;;15.53;75.08;93758.47;5035305;28;20453;-74
2023/11/05 09:19:25;;;;;;;5.13;2.70;;;;;;;15.66;75.19;93763.13;5035144;28;20475;-73
2023/11/05 09:21:52;;;;;;;4.03;2.97;;;;;;;15.79;73.91;93760.59;5016530;28;20442;-74
2023/11/05 09:24:19;;;;;;;5.37;2.90;;;;;;;15.89;73.11;93761.09;5034840;28;20447;-73
2023/11/05 09:26:45;;;;;;;6.63;2.70;;;;;;;16.05;72.22;93768.78;5034828;28;20457;-73
2023/11/05 09:29:13;;;;;;;7.93;4.77;;;;;;;16.17;71.20;93768.25;5035052;28;20937;-73
2023/11/05 09:31:41;;;;;;;3.30;3.00;;;;;;;16.28;70.71;93746.56;5034835;28;20543;-73
2023/11/05 09:34:10;;;;;;;12.93;2.77;;;;;;;16.10;69.17;93745.19;5035397;28;20462;-73
2023/11/05 09:36:36;;;;;;;2.83;2.53;;;;;;;16.13;70.76;93753.75;5016376;28;20482;-73
2023/11/05 09:39:07;;;;;;;3.80;2.40;;;;;;;16.28;70.25;93752.66;5035247;28;20444;-74
2023/11/05 09:41:36;;;;;;;4.70;3.00;;;;;;;16.36;70.19;93744.56;5035251;28;20454;-73
2023/11/05 09:44:03;;;;;;;4.23;3.03;;;;;;;16.40;69.77;93734.41;5000494;28;20443;-74
2023/11/05 09:46:30;;;;;;;4.70;3.67;;;;;;;16.48;70.62;93731.63;5034688;28;20443;-74
2023/11/05 09:48:57;;;;;;;4.70;3.47;;;;;;;16.37;69.95;93732.16;5034965;28;20927;-74
2023/11/05 09:51:25;;;;;;;4.37;2.90;;;;;;;16.23;71.09;93733.09;5034491;28;20439;-73
2023/11/05 09:53:52;;;;;;;3.20;2.90;;;;;;;16.38;70.03;93720.56;5034799;28;20854;-74
2023/11/05 09:56:19;;;;;;;13.20;3.33;;;;;;;16.44;70.59;93703.88;5000299;28;21023;-72
2023/11/05 09:58:46;;;;;;;7.40;3.20;;;;;;;16.38;70.33;93679.00;5034999;28;20440;-73
2023/11/05 10:01:13;;;;;;;3.70;2.20;;;;;;;16.26;71.71;93679.75;5034612;28;20483;-74
2023/11/05 10:03:39;;;;;;;3.50;2.80;;;;;;;16.37;71.14;93679.19;5034397;28;20566;-73
2023/11/05 10:06:07;;;;;;;8.03;2.60;;;;;;;16.58;70.92;93652.63;5034894;28;20444;-74
2023/11/05 10:08:35;;;;;;;2.67;1.97;;;;;;;16.69;70.13;93665.34;5034432;28;20448;-73
2023/11/05 10:11:02;;;;;;;2.67;2.20;;;;;;;16.76;71.41;93649.47;5034335;28;20532;-74
2023/11/05 10:13:31;;;;;;;3.67;2.23;;;;;;;16.80;70.67;93644.63;5034089;28;20448;-74
2023/11/05 10:16:00;;;;;;;3.60;2.37;;;;;;;16.87;71.19;93645.44;5034626;28;20541;-75
2023/11/05 10:18:28;;;;;;;5.67;2.50;;;;;;;16.92;71.77;93632.41;5033853;28;20483;-74
2023/11/05 10:20:56;;;;;;;5.30;2.60;;;;;;;17.02;71.72;93612.44;5015865;28;20852;-73
2023/11/05 10:23:24;;;;;;;4.97;2.13;;;;;;;17.20;72.94;93595.97;5015670;28;20505;-73
2023/11/05 10:25:53;;;;;;;4.43;2.00;;;;;;;17.17;69.43;93596.38;5034116;28;20454;-75
2023/11/05 10:28:21;;;;;;;4.37;2.30;;;;;;;17.17;69.35;93588.44;5034607;28;20473;-75
2023/11/05 10:30:50;;;;;;;4.27;2.17;;;;;;;17.15;69.92;93584.34;5034058;28;20448;-74
2023/11/05 10:33:17;;;;;;;2.83;2.13;;;;;;;17.11;69.89;93573.34;5034063;28;20447;-74
2023/11/05 10:35:44;;;;;;;2.90;2.40;;;;;;;17.19;71.11;93564.38;5034128;28;20493;-72
2023/11/05 10:38:14;;;;;;;1.93;1.70;;;;;;;17.24;70.50;93551.31;5034028;28;20461;-74
2023/11/05 10:40:41;;;;;;;3.03;2.23;;;;;;;17.37;71.77;93561.94;5033695;28;20502;-74
2023/11/05 10:43:10;;;;;;;5.67;2.43;;;;;;;17.47;70.78;93558.88;5033736;28;20479;-74
2023/11/05 10:45:39;;;;;;;8.27;2.20;;;;;;;17.50;67.94;93587.63;5033696;28;20467;-72
2023/11/05 10:48:09;;;;;;;2.50;2.30;;;;;;;17.59;69.25;93592.53;5033889;28;20478;-74
2023/11/05 10:50:37;;;;;;;3.87;2.50;;;;;;;17.57;68.82;93583.97;5034213;28;20919;-73
2023/11/05 10:53:07;;;;;;;3.83;2.03;;;;;;;17.57;66.78;93593.75;5033867;28;20815;-73
2023/11/05 10:55:36;;;;;;;6.70;2.73;;;;;;;17.61;65.84;93610.88;5033552;28;20568;-72
2023/11/05 10:58:03;;;;;;;1.50;1.40;;;;;;;17.61;62.99;93610.88;5014876;28;20452;-73
2023/11/05 11:00:50;;;;;;;2.70;2.37;;;;;;;17.65;62.45;93605.00;5033663;28;20497;-73
2023/11/05 11:03:17;;;;;;;2.30;1.37;;;;;;;17.65;63.58;93590.91;5033197;28;20886;-72
2023/11/05 11:05:58;;;;;;;2.23;1.30;;;;;;;17.61;62.20;93582.53;5033348;28;20459;-73
2023/11/05 11:08:27;;;;;;;2.27;1.80;;;;;;;17.62;61.58;93581.50;5033442;28;20455;-73
2023/11/05 11:11:07;;;;;;;3.53;1.70;;;;;;;17.66;61.26;93571.31;5033013;28;20441;-73
2023/11/05 11:13:37;;;;;;;5.67;1.80;;;;;;;17.72;61.80;93565.22;5033019;28;20946;-73
2023/11/05 11:16:08;;;;;;;7.13;2.10;;;;;;;17.74;60.77;93555.22;5032923;28;20845;-74
2023/11/05 11:18:36;;;;;;;3.73;2.07;;;;;;;17.79;61.17;93573.97;5032784;28;20480;-73
2023/11/05 11:21:04;;;;;;;4.63;1.40;;;;;;;17.83;60.64;93567.22;5032952;28;20941;-74
2023/11/05 11:23:31;;;;;;;1.47;1.37;;;;;;;17.87;60.05;93563.13;4998060;28;20451;-73
2023/11/05 11:26:01;;;;;;;3.70;1.80;;;;;;;17.78;59.84;93585.63;5033544;28;20442;-75
2023/11/05 11:28:29;;;;;;;3.80;2.40;;;;;;;17.84;60.94;93584.78;5033136;28;20958;-73
2023/11/05 11:30:56;;;;;;;8.17;1.80;;;;;;;17.90;62.79;93577.84;4998295;28;20452;-73
2023/11/05 11:33:27;;;;;;;2.93;1.60;;;;;;;17.95;60.40;93602.75;5032604;28;20452;-74
2023/11/05 11:35:54;;;;;;;4.80;1.37;;;;;;;17.88;58.28;93601.94;5032759;28;20600;-74